^^
Station Historical Data
Daily Summary for June 11, 2017 Units:  Both    English   Metric
« Previous Day
Next Day »
Daily Weekly Monthly Yearly Custom
  High: Low: Average:
Temperature: 72.7 °F /  22.6 °C 44.6 °F /  7 °C 57.6 °F /  14.2 °C
Dew Point: 41.2 °F /  5.1 °C 33.8 °F /  1 °C 36.8 °F /  2.7 °C
Humidity: 71% 28% 48%
Wind Speed: 6.9mph /  11.1km/h - 0.6mph /  1km/h
Wind Gust: 9.0mph /  14.5km/h - -
Wind- - SSW
Pressure: 30.36 in /  1028 hPa 30.24 in /  1023.9 hPa -
Precipitation: 0.00 in /  0 mm    
Historical Graphs
 
 
Tabular Data for June 11, 2017
Time Temperature Dew Point Pressure Wind Wind Speed Wind Gust Humidity Rainfall Rate (Hourly) solar Conditions
00:00 49.1 °F /  9.5 °C 34.9 °F /  1.6 °C 30.36in /  1028hPa Calm   2.0mph /  3.2km/h 58% 0.00in /  0mm 0.0 W/m2
00:06 49.5 °F /  9.7 °C 34.9 °F /  1.6 °C 30.36in /  1028hPa Calm     57% 0.00in /  0mm 0.0 W/m2
00:12 49.6 °F /  9.8 °C 35.1 °F /  1.7 °C 30.36in /  1028hPa Calm   1.0mph /  1.6km/h 57% 0.00in /  0mm 0.0 W/m2
00:18 49.8 °F /  9.9 °C 34.7 °F /  1.5 °C 30.36in /  1028hPa Calm   2.0mph /  3.2km/h 56% 0.00in /  0mm 0.0 W/m2
00:20 49.8 °F /  9.9 °C 34.7 °F /  1.5 °C 30.36in /  1028hPa Calm   1.0mph /  1.6km/h 56% 0.00in /  0mm 0.0 W/m2
00:26 50.0 °F /  10 °C 34.9 °F /  1.6 °C 30.36in /  1028hPa Calm   1.0mph /  1.6km/h 56% 0.00in /  0mm 0.0 W/m2
00:32 50.2 °F /  10.1 °C 35.1 °F /  1.7 °C 30.36in /  1028hPa Calm     56% 0.00in /  0mm 0.0 W/m2
00:38 50.0 °F /  10 °C 34.9 °F /  1.6 °C 30.36in /  1028hPa Calm     56% 0.00in /  0mm 0.0 W/m2
00:44 50.2 °F /  10.1 °C 35.1 °F /  1.7 °C 30.35in /  1027.7hPa Calm     56% 0.00in /  0mm 0.0 W/m2
00:50 50.2 °F /  10.1 °C 35.1 °F /  1.7 °C 30.35in /  1027.7hPa Calm     56% 0.00in /  0mm 0.0 W/m2
00:56 49.8 °F /  9.9 °C 34.7 °F /  1.5 °C 30.35in /  1027.7hPa ESE 2.9mph /  4.7km/h 3.0mph /  4.8km/h 56% 0.00in /  0mm 0.0 W/m2
01:02 49.8 °F /  9.9 °C 34.7 °F /  1.5 °C 30.35in /  1027.7hPa Calm     56% 0.00in /  0mm 0.0 W/m2
01:09 49.5 °F /  9.7 °C 34.9 °F /  1.6 °C 30.35in /  1027.7hPa Calm   1.0mph /  1.6km/h 57% 0.00in /  0mm 0.0 W/m2
01:15 49.3 °F /  9.6 °C 34.7 °F /  1.5 °C 30.34in /  1027.3hPa Calm   2.0mph /  3.2km/h 57% 0.00in /  0mm 0.0 W/m2
01:21 48.9 °F /  9.4 °C 34.9 °F /  1.6 °C 30.34in /  1027.3hPa Calm     58% 0.00in /  0mm 0.0 W/m2
01:27 48.7 °F /  9.3 °C 35.1 °F /  1.7 °C 30.34in /  1027.3hPa Calm   1.0mph /  1.6km/h 59% 0.00in /  0mm 0.0 W/m2
01:33 48.6 °F /  9.2 °C 34.9 °F /  1.6 °C 30.33in /  1027hPa Calm     59% 0.00in /  0mm 0.0 W/m2
01:39 48.4 °F /  9.1 °C 34.7 °F /  1.5 °C 30.33in /  1027hPa Calm     59% 0.00in /  0mm 0.0 W/m2
01:45 48.2 °F /  9 °C 34.9 °F /  1.6 °C 30.33in /  1027hPa Calm     60% 0.00in /  0mm 0.0 W/m2
01:51 48.0 °F /  8.9 °C 34.9 °F /  1.6 °C 30.33in /  1027hPa Calm   1.0mph /  1.6km/h 60% 0.00in /  0mm 0.0 W/m2
01:57 48.0 °F /  8.9 °C 34.9 °F /  1.6 °C 30.33in /  1027hPa Calm     60% 0.00in /  0mm 0.0 W/m2
02:03 47.8 °F /  8.8 °C 35.1 °F /  1.7 °C 30.33in /  1027hPa Calm     61% 0.00in /  0mm 0.0 W/m2
02:10 47.7 °F /  8.7 °C 34.9 °F /  1.6 °C 30.32in /  1026.6hPa Calm     61% 0.00in /  0mm 0.0 W/m2
02:16 47.5 °F /  8.6 °C 34.7 °F /  1.5 °C 30.32in /  1026.6hPa Calm     61% 0.00in /  0mm 0.0 W/m2
02:22 47.1 °F /  8.4 °C 34.7 °F /  1.5 °C 30.32in /  1026.6hPa Calm     62% 0.00in /  0mm 0.0 W/m2
02:28 46.8 °F /  8.2 °C 34.5 °F /  1.4 °C 30.32in /  1026.6hPa Calm     62% 0.00in /  0mm 0.0 W/m2
02:34 46.6 °F /  8.1 °C 34.7 °F /  1.5 °C 30.32in /  1026.6hPa Calm     63% 0.00in /  0mm 0.0 W/m2
02:40 46.2 °F /  7.9 °C 34.7 °F /  1.5 °C 30.32in /  1026.6hPa Calm     64% 0.00in /  0mm 0.0 W/m2
02:46 46.2 °F /  7.9 °C 35.1 °F /  1.7 °C 30.32in /  1026.6hPa ESE 4.0mph /  6.4km/h 4.0mph /  6.4km/h 65% 0.00in /  0mm 0.0 W/m2
02:52 46.2 °F /  7.9 °C 35.1 °F /  1.7 °C 30.32in /  1026.6hPa Calm   1.0mph /  1.6km/h 65% 0.00in /  0mm 0.0 W/m2
02:58 46.4 °F /  8 °C 35.2 °F /  1.8 °C 30.31in /  1026.3hPa Calm   1.0mph /  1.6km/h 65% 0.00in /  0mm 0.0 W/m2
03:04 46.6 °F /  8.1 °C 35.4 °F /  1.9 °C 30.32in /  1026.6hPa Calm   1.0mph /  1.6km/h 65% 0.00in /  0mm 0.0 W/m2
03:11 46.8 °F /  8.2 °C 35.2 °F /  1.8 °C 30.31in /  1026.3hPa Calm     64% 0.00in /  0mm 0.0 W/m2
03:17 46.8 °F /  8.2 °C 35.6 °F /  2 °C 30.32in /  1026.6hPa Calm     65% 0.00in /  0mm 0.0 W/m2
03:23 46.9 °F /  8.3 °C 35.4 °F /  1.9 °C 30.32in /  1026.6hPa Calm   1.0mph /  1.6km/h 64% 0.00in /  0mm 0.0 W/m2
03:29 47.1 °F /  8.4 °C 35.6 °F /  2 °C 30.31in /  1026.3hPa Calm     64% 0.00in /  0mm 0.0 W/m2
03:35 47.1 °F /  8.4 °C 35.6 °F /  2 °C 30.31in /  1026.3hPa Calm     64% 0.00in /  0mm 0.0 W/m2
03:41 46.9 °F /  8.3 °C 35.4 °F /  1.9 °C 30.31in /  1026.3hPa Calm     64% 0.00in /  0mm 0.0 W/m2
03:47 46.9 °F /  8.3 °C 35.8 °F /  2.1 °C 30.31in /  1026.3hPa Calm     65% 0.00in /  0mm 0.0 W/m2
03:53 46.9 °F /  8.3 °C 35.4 °F /  1.9 °C 30.31in /  1026.3hPa Calm     64% 0.00in /  0mm 0.0 W/m2
03:59 46.8 °F /  8.2 °C 35.6 °F /  2 °C 30.32in /  1026.6hPa Calm   1.0mph /  1.6km/h 65% 0.00in /  0mm 0.0 W/m2
04:06 46.9 °F /  8.3 °C 35.4 °F /  1.9 °C 30.31in /  1026.3hPa Calm     64% 0.00in /  0mm 0.0 W/m2
04:12 46.8 °F /  8.2 °C 35.6 °F /  2 °C 30.32in /  1026.6hPa East 0.9mph /  1.4km/h 2.0mph /  3.2km/h 65% 0.00in /  0mm 0.0 W/m2
04:18 46.8 °F /  8.2 °C 35.6 °F /  2 °C 30.31in /  1026.3hPa Calm   1.0mph /  1.6km/h 65% 0.00in /  0mm 0.0 W/m2
04:24 46.9 °F /  8.3 °C 35.4 °F /  1.9 °C 30.31in /  1026.3hPa Calm   3.0mph /  4.8km/h 64% 0.00in /  0mm 0.0 W/m2
04:30 46.9 °F /  8.3 °C 35.8 °F /  2.1 °C 30.31in /  1026.3hPa Calm   2.0mph /  3.2km/h 65% 0.00in /  0mm 0.0 W/m2
04:36 46.9 °F /  8.3 °C 35.8 °F /  2.1 °C 30.31in /  1026.3hPa Calm   6.0mph /  9.7km/h 65% 0.00in /  0mm 0.0 W/m2
04:42 46.9 °F /  8.3 °C 35.8 °F /  2.1 °C 30.31in /  1026.3hPa ENE 0.9mph /  1.4km/h 3.0mph /  4.8km/h 65% 0.00in /  0mm 0.0 W/m2
04:48 46.8 °F /  8.2 °C 35.6 °F /  2 °C 30.31in /  1026.3hPa Calm     65% 0.00in /  0mm 0.0 W/m2
04:55 46.6 °F /  8.1 °C 35.8 °F /  2.1 °C 30.31in /  1026.3hPa Calm     66% 0.00in /  0mm 0.0 W/m2
05:01 46.4 °F /  8 °C 35.6 °F /  2 °C 30.31in /  1026.3hPa Calm     66% 0.00in /  0mm 0.0 W/m2
05:07 46.2 °F /  7.9 °C 35.4 °F /  1.9 °C 30.31in /  1026.3hPa Calm     66% 0.00in /  0mm 0.0 W/m2
05:13 46.2 °F /  7.9 °C 35.4 °F /  1.9 °C 30.31in /  1026.3hPa Calm     66% 0.00in /  0mm 0.0 W/m2
05:19 45.9 °F /  7.7 °C 35.1 °F /  1.7 °C 30.31in /  1026.3hPa Calm     66% 0.00in /  0mm 0.0 W/m2
05:25 45.7 °F /  7.6 °C 35.4 °F /  1.9 °C 30.30in /  1026hPa Calm   2.0mph /  3.2km/h 67% 0.00in /  0mm 0.0 W/m2
05:31 45.3 °F /  7.4 °C 35.4 °F /  1.9 °C 30.30in /  1026hPa Calm   1.0mph /  1.6km/h 68% 0.00in /  0mm 0.0 W/m2
05:37 45.1 °F /  7.3 °C 35.2 °F /  1.8 °C 30.31in /  1026.3hPa Calm   2.0mph /  3.2km/h 68% 0.00in /  0mm 0.0 W/m2
05:44 45.0 °F /  7.2 °C 35.4 °F /  1.9 °C 30.31in /  1026.3hPa Calm   2.0mph /  3.2km/h 69% 0.00in /  0mm 0.0 W/m2
05:50 45.0 °F /  7.2 °C 35.4 °F /  1.9 °C 30.31in /  1026.3hPa Calm   2.0mph /  3.2km/h 69% 0.00in /  0mm 0.0 W/m2
06:00 45.0 °F /  7.2 °C 35.4 °F /  1.9 °C 30.31in /  1026.3hPa Calm     69% 0.00in /  0mm 0.0 W/m2
06:06 45.0 °F /  7.2 °C 35.4 °F /  1.9 °C 30.31in /  1026.3hPa Calm   3.0mph /  4.8km/h 69% 0.00in /  0mm 0.0 W/m2
06:12 45.0 °F /  7.2 °C 35.8 °F /  2.1 °C 30.31in /  1026.3hPa Calm     70% 0.00in /  0mm 0.0 W/m2
06:18 44.8 °F /  7.1 °C 35.6 °F /  2 °C 30.32in /  1026.6hPa Calm   1.0mph /  1.6km/h 70% 0.00in /  0mm 0.0 W/m2
06:24 44.8 °F /  7.1 °C 35.6 °F /  2 °C 30.32in /  1026.6hPa ESE 0.9mph /  1.4km/h 2.0mph /  3.2km/h 70% 0.00in /  0mm 0.0 W/m2
06:31 44.6 °F /  7 °C 35.4 °F /  1.9 °C 30.31in /  1026.3hPa Calm   2.0mph /  3.2km/h 70% 0.00in /  0mm 5.0 W/m2
06:37 44.6 °F /  7 °C 35.4 °F /  1.9 °C 30.32in /  1026.6hPa Calm   2.0mph /  3.2km/h 70% 0.00in /  0mm 11.0 W/m2
06:43 44.6 °F /  7 °C 35.4 °F /  1.9 °C 30.32in /  1026.6hPa Calm   3.0mph /  4.8km/h 70% 0.00in /  0mm 12.0 W/m2
06:49 44.8 °F /  7.1 °C 35.6 °F /  2 °C 30.32in /  1026.6hPa Calm   2.0mph /  3.2km/h 70% 0.00in /  0mm 14.0 W/m2
06:55 44.8 °F /  7.1 °C 36.0 °F /  2.2 °C 30.32in /  1026.6hPa ENE 0.9mph /  1.4km/h 3.0mph /  4.8km/h 71% 0.00in /  0mm 16.0 W/m2
07:03 45.0 °F /  7.2 °C 36.1 °F /  2.3 °C 30.32in /  1026.6hPa Calm   2.0mph /  3.2km/h 71% 0.00in /  0mm 16.0 W/m2
07:09 45.1 °F /  7.3 °C 36.3 °F /  2.4 °C 30.33in /  1027hPa Calm   4.0mph /  6.4km/h 71% 0.00in /  0mm 18.0 W/m2
07:16 45.3 °F /  7.4 °C 36.1 °F /  2.3 °C 30.33in /  1027hPa Calm   1.0mph /  1.6km/h 70% 0.00in /  0mm 19.0 W/m2
07:22 45.7 °F /  7.6 °C 36.5 °F /  2.5 °C 30.33in /  1027hPa Calm   3.0mph /  4.8km/h 70% 0.00in /  0mm 19.0 W/m2
07:28 46.0 °F /  7.8 °C 36.9 °F /  2.7 °C 30.33in /  1027hPa East 0.9mph /  1.4km/h 1.0mph /  1.6km/h 70% 0.00in /  0mm 21.0 W/m2
07:34 46.6 °F /  8.1 °C 37.0 °F /  2.8 °C 30.33in /  1027hPa Calm   1.0mph /  1.6km/h 69% 0.00in /  0mm 23.0 W/m2
07:40 47.3 °F /  8.5 °C 37.2 °F /  2.9 °C 30.33in /  1027hPa Calm   1.0mph /  1.6km/h 68% 0.00in /  0mm 25.0 W/m2
07:46 47.8 °F /  8.8 °C 37.4 °F /  3 °C 30.33in /  1027hPa ENE 0.9mph /  1.4km/h 1.0mph /  1.6km/h 67% 0.00in /  0mm 26.0 W/m2
07:52 49.3 °F /  9.6 °C 37.9 °F /  3.3 °C 30.33in /  1027hPa Calm   2.0mph /  3.2km/h 65% 0.00in /  0mm 104.0 W/m2
07:59 50.7 °F /  10.4 °C 38.7 °F /  3.7 °C 30.33in /  1027hPa Calm   1.0mph /  1.6km/h 63% 0.00in /  0mm 269.0 W/m2
08:05 52.5 °F /  11.4 °C 39.4 °F /  4.1 °C 30.33in /  1027hPa Calm   1.0mph /  1.6km/h 61% 0.00in /  0mm 292.0 W/m2
08:11 54.5 °F /  12.5 °C 39.2 °F /  4 °C 30.33in /  1027hPa Calm   1.0mph /  1.6km/h 56% 0.00in /  0mm 311.0 W/m2
08:17 55.8 °F /  13.2 °C 39.9 °F /  4.4 °C 30.34in /  1027.3hPa Calm   1.0mph /  1.6km/h 55% 0.00in /  0mm 330.0 W/m2
08:23 57.7 °F /  14.3 °C 39.2 °F /  4 °C 30.34in /  1027.3hPa ENE 0.9mph /  1.4km/h 4.0mph /  6.4km/h 50% 0.00in /  0mm 350.0 W/m2
08:29 59.4 °F /  15.2 °C 39.2 °F /  4 °C 30.34in /  1027.3hPa ENE 0.9mph /  1.4km/h 3.0mph /  4.8km/h 47% 0.00in /  0mm 371.0 W/m2
08:36 60.6 °F /  15.9 °C 39.7 °F /  4.3 °C 30.34in /  1027.3hPa Calm   1.0mph /  1.6km/h 46% 0.00in /  0mm 388.0 W/m2
08:42 61.9 °F /  16.6 °C 39.2 °F /  4 °C 30.34in /  1027.3hPa Calm   1.0mph /  1.6km/h 43% 0.00in /  0mm 406.0 W/m2
08:48 62.8 °F /  17.1 °C 39.9 °F /  4.4 °C 30.34in /  1027.3hPa NNW 0.9mph /  1.4km/h 1.0mph /  1.6km/h 43% 0.00in /  0mm 424.0 W/m2
08:54 63.7 °F /  17.6 °C 39.6 °F /  4.2 °C 30.34in /  1027.3hPa Calm   1.0mph /  1.6km/h 41% 0.00in /  0mm 443.0 W/m2
09:00 64.2 °F /  17.9 °C 40.1 °F /  4.5 °C 30.34in /  1027.3hPa NNW 2.0mph /  3.2km/h 2.0mph /  3.2km/h 41% 0.00in /  0mm 461.0 W/m2
09:06 65.1 °F /  18.4 °C 39.6 °F /  4.2 °C 30.34in /  1027.3hPa Calm   4.0mph /  6.4km/h 39% 0.00in /  0mm 476.0 W/m2
09:12 65.8 °F /  18.8 °C 39.6 °F /  4.2 °C 30.34in /  1027.3hPa NNE 2.9mph /  4.7km/h 6.0mph /  9.7km/h 38% 0.00in /  0mm 490.0 W/m2
09:18 66.0 °F /  18.9 °C 39.7 °F /  4.3 °C 30.34in /  1027.3hPa North 2.9mph /  4.7km/h 5.0mph /  8km/h 38% 0.00in /  0mm 504.0 W/m2
09:24 66.0 °F /  18.9 °C 39.7 °F /  4.3 °C 30.34in /  1027.3hPa NNW 2.9mph /  4.7km/h 7.0mph /  11.3km/h 38% 0.00in /  0mm 519.0 W/m2
09:30 66.0 °F /  18.9 °C 39.7 °F /  4.3 °C 30.33in /  1027hPa North 4.0mph /  6.4km/h 5.0mph /  8km/h 38% 0.00in /  0mm 533.0 W/m2
09:39 66.6 °F /  19.2 °C 40.1 °F /  4.5 °C 30.33in /  1027hPa Calm   5.0mph /  8km/h 38% 0.00in /  0mm 550.0 W/m2
09:45 66.9 °F /  19.4 °C 40.5 °F /  4.7 °C 30.34in /  1027.3hPa Calm   4.0mph /  6.4km/h 38% 0.00in /  0mm 564.0 W/m2
09:51 67.5 °F /  19.7 °C 41.0 °F /  5 °C 30.33in /  1027hPa Calm   3.0mph /  4.8km/h 38% 0.00in /  0mm 575.0 W/m2
09:57 67.8 °F /  19.9 °C 40.6 °F /  4.8 °C 30.33in /  1027hPa North 2.0mph /  3.2km/h 6.0mph /  9.7km/h 37% 0.00in /  0mm 585.0 W/m2
10:03 68.2 °F /  20.1 °C 40.3 °F /  4.6 °C 30.33in /  1027hPa WNW 0.9mph /  1.4km/h 7.0mph /  11.3km/h 36% 0.00in /  0mm 599.0 W/m2
10:09 68.5 °F /  20.3 °C 40.5 °F /  4.7 °C 30.33in /  1027hPa NW 2.0mph /  3.2km/h 6.0mph /  9.7km/h 36% 0.00in /  0mm 608.0 W/m2
10:16 68.7 °F /  20.4 °C 39.9 °F /  4.4 °C 30.33in /  1027hPa North 4.9mph /  7.9km/h 8.0mph /  12.9km/h 35% 0.00in /  0mm 619.0 W/m2
10:22 69.1 °F /  20.6 °C 40.3 °F /  4.6 °C 30.33in /  1027hPa NNW 0.9mph /  1.4km/h 7.0mph /  11.3km/h 35% 0.00in /  0mm 628.0 W/m2
10:28 69.1 °F /  20.6 °C 39.6 °F /  4.2 °C 30.32in /  1026.6hPa North 2.0mph /  3.2km/h 7.0mph /  11.3km/h 34% 0.00in /  0mm 638.0 W/m2
10:34 69.1 °F /  20.6 °C 40.3 °F /  4.6 °C 30.32in /  1026.6hPa WNW 0.9mph /  1.4km/h 4.0mph /  6.4km/h 35% 0.00in /  0mm 649.0 W/m2
10:40 69.3 °F /  20.7 °C 40.5 °F /  4.7 °C 30.32in /  1026.6hPa North 6.0mph /  9.7km/h 6.0mph /  9.7km/h 35% 0.00in /  0mm 656.0 W/m2
10:46 69.6 °F /  20.9 °C 40.8 °F /  4.9 °C 30.31in /  1026.3hPa WNW 4.9mph /  7.9km/h 5.0mph /  8km/h 35% 0.00in /  0mm 661.0 W/m2
10:54 70.0 °F /  21.1 °C 40.3 °F /  4.6 °C 30.31in /  1026.3hPa Calm   7.0mph /  11.3km/h 34% 0.00in /  0mm 666.0 W/m2
11:01 70.0 °F /  21.1 °C 40.3 °F /  4.6 °C 30.30in /  1026hPa NNW 2.0mph /  3.2km/h 3.0mph /  4.8km/h 34% 0.00in /  0mm 668.0 W/m2
11:07 70.3 °F /  21.3 °C 40.6 °F /  4.8 °C 30.30in /  1026hPa Calm   5.0mph /  8km/h 34% 0.00in /  0mm 677.0 W/m2
11:13 70.5 °F /  21.4 °C 40.1 °F /  4.5 °C 30.29in /  1025.6hPa ENE 0.9mph /  1.4km/h 7.0mph /  11.3km/h 33% 0.00in /  0mm 682.0 W/m2
11:19 70.5 °F /  21.4 °C 40.1 °F /  4.5 °C 30.29in /  1025.6hPa Calm   1.0mph /  1.6km/h 33% 0.00in /  0mm 684.0 W/m2
11:25 70.9 °F /  21.6 °C 41.2 °F /  5.1 °C 30.29in /  1025.6hPa Calm   5.0mph /  8km/h 34% 0.00in /  0mm 687.0 W/m2
11:31 70.9 °F /  21.6 °C 41.2 °F /  5.1 °C 30.28in /  1025.3hPa NNW 2.0mph /  3.2km/h 5.0mph /  8km/h 34% 0.00in /  0mm 684.0 W/m2
11:37 71.2 °F /  21.8 °C 39.9 °F /  4.4 °C 30.28in /  1025.3hPa NNW 0.9mph /  1.4km/h 4.0mph /  6.4km/h 32% 0.00in /  0mm 687.0 W/m2
11:44 71.2 °F /  21.8 °C 39.9 °F /  4.4 °C 30.28in /  1025.3hPa North 0.9mph /  1.4km/h 2.0mph /  3.2km/h 32% 0.00in /  0mm 686.0 W/m2
11:50 71.2 °F /  21.8 °C 39.9 °F /  4.4 °C 30.28in /  1025.3hPa West 0.9mph /  1.4km/h 2.0mph /  3.2km/h 32% 0.00in /  0mm 687.0 W/m2
11:55 71.2 °F /  21.8 °C 40.6 °F /  4.8 °C 30.28in /  1025.3hPa NNW 2.9mph /  4.7km/h 4.0mph /  6.4km/h 33% 0.00in /  0mm 684.0 W/m2
12:00 71.6 °F /  22 °C 41.0 °F /  5 °C 30.28in /  1025.3hPa North 0.9mph /  1.4km/h 3.0mph /  4.8km/h 33% 0.00in /  0mm 684.0 W/m2
12:06 71.8 °F /  22.1 °C 39.6 °F /  4.2 °C 30.28in /  1025.3hPa North 4.0mph /  6.4km/h 8.0mph /  12.9km/h 31% 0.00in /  0mm 686.0 W/m2
12:12 71.6 °F /  22 °C 39.4 °F /  4.1 °C 30.27in /  1024.9hPa Calm   3.0mph /  4.8km/h 31% 0.00in /  0mm 684.0 W/m2
12:18 71.6 °F /  22 °C 39.4 °F /  4.1 °C 30.28in /  1025.3hPa NNW 6.9mph /  11.1km/h 9.0mph /  14.5km/h 31% 0.00in /  0mm 673.0 W/m2
12:24 71.4 °F /  21.9 °C 39.2 °F /  4 °C 30.27in /  1024.9hPa NNE 2.9mph /  4.7km/h 3.0mph /  4.8km/h 31% 0.00in /  0mm 671.0 W/m2
12:30 71.8 °F /  22.1 °C 39.6 °F /  4.2 °C 30.27in /  1024.9hPa North 4.9mph /  7.9km/h 8.0mph /  12.9km/h 31% 0.00in /  0mm 666.0 W/m2
12:37 71.8 °F /  22.1 °C 39.6 °F /  4.2 °C 30.27in /  1024.9hPa Calm   3.0mph /  4.8km/h 31% 0.00in /  0mm 663.0 W/m2
12:43 72.0 °F /  22.2 °C 39.7 °F /  4.3 °C 30.27in /  1024.9hPa West 0.9mph /  1.4km/h 2.0mph /  3.2km/h 31% 0.00in /  0mm 657.0 W/m2
12:49 72.1 °F /  22.3 °C 39.0 °F /  3.9 °C 30.26in /  1024.6hPa Calm   7.0mph /  11.3km/h 30% 0.00in /  0mm 650.0 W/m2
12:55 72.1 °F /  22.3 °C 39.0 °F /  3.9 °C 30.26in /  1024.6hPa NW 4.0mph /  6.4km/h 5.0mph /  8km/h 30% 0.00in /  0mm 642.0 W/m2
13:01 72.3 °F /  22.4 °C 39.9 °F /  4.4 °C 30.26in /  1024.6hPa WSW 4.0mph /  6.4km/h 5.0mph /  8km/h 31% 0.00in /  0mm 636.0 W/m2
13:07 72.3 °F /  22.4 °C 39.2 °F /  4 °C 30.25in /  1024.3hPa NW 6.0mph /  9.7km/h 8.0mph /  12.9km/h 30% 0.00in /  0mm 624.0 W/m2
13:13 72.3 °F /  22.4 °C 39.2 °F /  4 °C 30.25in /  1024.3hPa Calm   3.0mph /  4.8km/h 30% 0.00in /  0mm 624.0 W/m2
13:19 72.5 °F /  22.5 °C 38.5 °F /  3.6 °C 30.25in /  1024.3hPa WSW 0.9mph /  1.4km/h 4.0mph /  6.4km/h 29% 0.00in /  0mm 610.0 W/m2
13:25 72.7 °F /  22.6 °C 38.7 °F /  3.7 °C 30.25in /  1024.3hPa Calm   5.0mph /  8km/h 29% 0.00in /  0mm 598.0 W/m2
13:32 72.5 °F /  22.5 °C 38.5 °F /  3.6 °C 30.25in /  1024.3hPa NNE 6.0mph /  9.7km/h 7.0mph /  11.3km/h 29% 0.00in /  0mm 587.0 W/m2
13:38 72.3 °F /  22.4 °C 39.2 °F /  4 °C 30.24in /  1023.9hPa NNE 2.0mph /  3.2km/h 4.0mph /  6.4km/h 30% 0.00in /  0mm 575.0 W/m2
13:44 72.3 °F /  22.4 °C 39.2 °F /  4 °C 30.24in /  1023.9hPa NNW 2.0mph /  3.2km/h 4.0mph /  6.4km/h 30% 0.00in /  0mm 566.0 W/m2
13:50 72.3 °F /  22.4 °C 39.2 °F /  4 °C 30.24in /  1023.9hPa Calm   3.0mph /  4.8km/h 30% 0.00in /  0mm 554.0 W/m2
13:56 72.3 °F /  22.4 °C 39.2 °F /  4 °C 30.24in /  1023.9hPa NE 0.9mph /  1.4km/h 4.0mph /  6.4km/h 30% 0.00in /  0mm 541.0 W/m2
14:02 72.3 °F /  22.4 °C 38.3 °F /  3.5 °C 30.24in /  1023.9hPa NW 6.0mph /  9.7km/h 7.0mph /  11.3km/h 29% 0.00in /  0mm 529.0 W/m2
14:08 72.1 °F /  22.3 °C 38.1 °F /  3.4 °C 30.25in /  1024.3hPa Calm   6.0mph /  9.7km/h 29% 0.00in /  0mm 512.0 W/m2
14:14 72.3 °F /  22.4 °C 38.3 °F /  3.5 °C 30.25in /  1024.3hPa North 6.0mph /  9.7km/h 8.0mph /  12.9km/h 29% 0.00in /  0mm 499.0 W/m2
14:21 72.3 °F /  22.4 °C 38.3 °F /  3.5 °C 30.25in /  1024.3hPa NNW 2.0mph /  3.2km/h 3.0mph /  4.8km/h 29% 0.00in /  0mm 482.0 W/m2
14:27 72.3 °F /  22.4 °C 38.3 °F /  3.5 °C 30.25in /  1024.3hPa West 0.9mph /  1.4km/h 5.0mph /  8km/h 29% 0.00in /  0mm 469.0 W/m2
14:33 72.3 °F /  22.4 °C 37.4 °F /  3 °C 30.24in /  1023.9hPa SSW 2.0mph /  3.2km/h 3.0mph /  4.8km/h 28% 0.00in /  0mm 455.0 W/m2
14:39 72.1 °F /  22.3 °C 38.1 °F /  3.4 °C 30.24in /  1023.9hPa NW 0.9mph /  1.4km/h 1.0mph /  1.6km/h 29% 0.00in /  0mm 438.0 W/m2
14:45 72.3 °F /  22.4 °C 38.3 °F /  3.5 °C 30.24in /  1023.9hPa Calm   3.0mph /  4.8km/h 29% 0.00in /  0mm 418.0 W/m2
14:51 72.7 °F /  22.6 °C 37.8 °F /  3.2 °C 30.24in /  1023.9hPa WSW 0.9mph /  1.4km/h 5.0mph /  8km/h 28% 0.00in /  0mm 399.0 W/m2
14:57 72.3 °F /  22.4 °C 38.3 °F /  3.5 °C 30.24in /  1023.9hPa North 2.9mph /  4.7km/h 5.0mph /  8km/h 29% 0.00in /  0mm 385.0 W/m2
15:03 72.1 °F /  22.3 °C 38.1 °F /  3.4 °C 30.24in /  1023.9hPa Calm   6.0mph /  9.7km/h 29% 0.00in /  0mm 373.0 W/m2
15:08 72.0 °F /  22.2 °C 37.0 °F /  2.8 °C 30.24in /  1023.9hPa WSW 2.0mph /  3.2km/h 2.0mph /  3.2km/h 28% 0.00in /  0mm 353.0 W/m2
15:14 71.8 °F /  22.1 °C 37.8 °F /  3.2 °C 30.24in /  1023.9hPa WSW 4.0mph /  6.4km/h 5.0mph /  8km/h 29% 0.00in /  0mm 334.0 W/m2
15:20 71.4 °F /  21.9 °C 37.6 °F /  3.1 °C 30.24in /  1023.9hPa WSW 0.9mph /  1.4km/h 4.0mph /  6.4km/h 29% 0.00in /  0mm 97.0 W/m2
15:26 71.1 °F /  21.7 °C 37.2 °F /  2.9 °C 30.24in /  1023.9hPa Calm   2.0mph /  3.2km/h 29% 0.00in /  0mm 49.0 W/m2
15:32 70.9 °F /  21.6 °C 37.0 °F /  2.8 °C 30.25in /  1024.3hPa West 2.0mph /  3.2km/h 5.0mph /  8km/h 29% 0.00in /  0mm 46.0 W/m2
15:38 70.5 °F /  21.4 °C 35.8 °F /  2.1 °C 30.25in /  1024.3hPa West 2.0mph /  3.2km/h 7.0mph /  11.3km/h 28% 0.00in /  0mm 44.0 W/m2
15:44 70.3 °F /  21.3 °C 36.5 °F /  2.5 °C 30.25in /  1024.3hPa West 0.9mph /  1.4km/h 2.0mph /  3.2km/h 29% 0.00in /  0mm 42.0 W/m2
15:50 70.2 °F /  21.2 °C 36.5 °F /  2.5 °C 30.25in /  1024.3hPa Calm   2.0mph /  3.2km/h 29% 0.00in /  0mm 40.0 W/m2
15:57 70.0 °F /  21.1 °C 37.0 °F /  2.8 °C 30.25in /  1024.3hPa Calm     30% 0.00in /  0mm 37.0 W/m2
16:03 69.6 °F /  20.9 °C 36.9 °F /  2.7 °C 30.25in /  1024.3hPa Calm   1.0mph /  1.6km/h 30% 0.00in /  0mm 32.0 W/m2
16:09 69.4 °F /  20.8 °C 37.4 °F /  3 °C 30.25in /  1024.3hPa Calm     31% 0.00in /  0mm 28.0 W/m2
16:15 69.3 °F /  20.7 °C 36.5 °F /  2.5 °C 30.25in /  1024.3hPa Calm   1.0mph /  1.6km/h 30% 0.00in /  0mm 26.0 W/m2
16:21 69.1 °F /  20.6 °C 37.2 °F /  2.9 °C 30.26in /  1024.6hPa Calm   1.0mph /  1.6km/h 31% 0.00in /  0mm 25.0 W/m2
16:27 68.9 °F /  20.5 °C 37.0 °F /  2.8 °C 30.26in /  1024.6hPa NNW 0.9mph /  1.4km/h 3.0mph /  4.8km/h 31% 0.00in /  0mm 23.0 W/m2
16:33 68.5 °F /  20.3 °C 37.6 °F /  3.1 °C 30.26in /  1024.6hPa Calm     32% 0.00in /  0mm 21.0 W/m2
16:39 68.2 °F /  20.1 °C 36.3 °F /  2.4 °C 30.26in /  1024.6hPa Calm     31% 0.00in /  0mm 19.0 W/m2
16:48 67.6 °F /  19.8 °C 38.3 °F /  3.5 °C 30.26in /  1024.6hPa Calm     34% 0.00in /  0mm 16.0 W/m2
16:56 66.9 °F /  19.4 °C 37.6 °F /  3.1 °C 30.26in /  1024.6hPa Calm     34% 0.00in /  0mm 12.0 W/m2
17:02 66.4 °F /  19.1 °C 37.2 °F /  2.9 °C 30.27in /  1024.9hPa Calm     34% 0.00in /  0mm 11.0 W/m2
17:08 65.8 °F /  18.8 °C 38.1 °F /  3.4 °C 30.27in /  1024.9hPa Calm     36% 0.00in /  0mm 7.0 W/m2
17:14 65.1 °F /  18.4 °C 38.1 °F /  3.4 °C 30.27in /  1024.9hPa Calm     37% 0.00in /  0mm 0.0 W/m2
17:20 64.6 °F /  18.1 °C 37.8 °F /  3.2 °C 30.27in /  1024.9hPa Calm     37% 0.00in /  0mm 0.0 W/m2
17:26 63.9 °F /  17.7 °C 37.8 °F /  3.2 °C 30.26in /  1024.6hPa Calm     38% 0.00in /  0mm 0.0 W/m2
17:31 63.3 °F /  17.4 °C 37.9 °F /  3.3 °C 30.27in /  1024.9hPa Calm     39% 0.00in /  0mm 0.0 W/m2
17:37 62.8 °F /  17.1 °C 37.4 °F /  3 °C 30.27in /  1024.9hPa Calm     39% 0.00in /  0mm 0.0 W/m2
17:43 62.1 °F /  16.7 °C 37.4 °F /  3 °C 30.27in /  1024.9hPa Calm     40% 0.00in /  0mm 0.0 W/m2
17:49 61.5 °F /  16.4 °C 37.0 °F /  2.8 °C 30.27in /  1024.9hPa Calm     40% 0.00in /  0mm 0.0 W/m2
17:56 61.0 °F /  16.1 °C 37.8 °F /  3.2 °C 30.27in /  1024.9hPa Calm     42% 0.00in /  0mm 0.0 W/m2
18:01 60.3 °F /  15.7 °C 37.0 °F /  2.8 °C 30.28in /  1025.3hPa Calm     42% 0.00in /  0mm 0.0 W/m2
18:06 59.9 °F /  15.5 °C 37.4 °F /  3 °C 30.27in /  1024.9hPa Calm     43% 0.00in /  0mm 0.0 W/m2
18:12 59.4 °F /  15.2 °C 36.9 °F /  2.7 °C 30.28in /  1025.3hPa Calm     43% 0.00in /  0mm 0.0 W/m2
18:18 58.6 °F /  14.8 °C 36.9 °F /  2.7 °C 30.28in /  1025.3hPa Calm     44% 0.00in /  0mm 0.0 W/m2
18:24 58.1 °F /  14.5 °C 35.8 °F /  2.1 °C 30.28in /  1025.3hPa Calm     43% 0.00in /  0mm 0.0 W/m2
18:30 57.6 °F /  14.2 °C 35.8 °F /  2.1 °C 30.29in /  1025.6hPa Calm     44% 0.00in /  0mm 0.0 W/m2
18:36 57.0 °F /  13.9 °C 36.0 °F /  2.2 °C 30.29in /  1025.6hPa Calm     45% 0.00in /  0mm 0.0 W/m2
18:42 56.7 °F /  13.7 °C 36.1 °F /  2.3 °C 30.29in /  1025.6hPa Calm     46% 0.00in /  0mm 0.0 W/m2
18:48 56.3 °F /  13.5 °C 35.8 °F /  2.1 °C 30.30in /  1026hPa Calm     46% 0.00in /  0mm 0.0 W/m2
18:54 55.9 °F /  13.3 °C 35.4 °F /  1.9 °C 30.30in /  1026hPa Calm     46% 0.00in /  0mm 0.0 W/m2
19:00 55.9 °F /  13.3 °C 35.4 °F /  1.9 °C 30.30in /  1026hPa Calm     46% 0.00in /  0mm 0.0 W/m2
19:06 55.8 °F /  13.2 °C 35.2 °F /  1.8 °C 30.30in /  1026hPa Calm     46% 0.00in /  0mm 0.0 W/m2
19:12 55.8 °F /  13.2 °C 35.8 °F /  2.1 °C 30.30in /  1026hPa Calm     47% 0.00in /  0mm 0.0 W/m2
19:19 55.4 °F /  13 °C 36.0 °F /  2.2 °C 30.30in /  1026hPa Calm     48% 0.00in /  0mm 0.0 W/m2
19:25 55.0 °F /  12.8 °C 35.2 °F /  1.8 °C 30.30in /  1026hPa Calm     47% 0.00in /  0mm 0.0 W/m2
19:31 54.9 °F /  12.7 °C 35.1 °F /  1.7 °C 30.30in /  1026hPa Calm     47% 0.00in /  0mm 0.0 W/m2
19:37 54.3 °F /  12.4 °C 35.1 °F /  1.7 °C 30.31in /  1026.3hPa Calm     48% 0.00in /  0mm 0.0 W/m2
19:39 54.3 °F /  12.4 °C 35.1 °F /  1.7 °C 30.30in /  1026hPa Calm   1.0mph /  1.6km/h 48% 0.00in /  0mm 0.0 W/m2
19:45 54.1 °F /  12.3 °C 35.4 °F /  1.9 °C 30.31in /  1026.3hPa Calm   2.0mph /  3.2km/h 49% 0.00in /  0mm 0.0 W/m2
19:53 54.1 °F /  12.3 °C 35.4 °F /  1.9 °C 30.30in /  1026hPa East 0.9mph /  1.4km/h 2.0mph /  3.2km/h 49% 0.00in /  0mm 0.0 W/m2
19:59 54.1 °F /  12.3 °C 35.4 °F /  1.9 °C 30.30in /  1026hPa Calm   2.0mph /  3.2km/h 49% 0.00in /  0mm 0.0 W/m2
20:05 54.1 °F /  12.3 °C 35.4 °F /  1.9 °C 30.31in /  1026.3hPa East 0.9mph /  1.4km/h 2.0mph /  3.2km/h 49% 0.00in /  0mm 0.0 W/m2
20:11 54.3 °F /  12.4 °C 35.6 °F /  2 °C 30.31in /  1026.3hPa Calm   1.0mph /  1.6km/h 49% 0.00in /  0mm 0.0 W/m2
20:18 54.3 °F /  12.4 °C 35.6 °F /  2 °C 30.31in /  1026.3hPa Calm     49% 0.00in /  0mm 0.0 W/m2
20:24 54.1 °F /  12.3 °C 35.4 °F /  1.9 °C 30.31in /  1026.3hPa Calm   3.0mph /  4.8km/h 49% 0.00in /  0mm 0.0 W/m2
20:30 54.0 °F /  12.2 °C 35.8 °F /  2.1 °C 30.31in /  1026.3hPa Calm   1.0mph /  1.6km/h 50% 0.00in /  0mm 0.0 W/m2
20:36 53.8 °F /  12.1 °C 35.6 °F /  2 °C 30.31in /  1026.3hPa Calm   1.0mph /  1.6km/h 50% 0.00in /  0mm 0.0 W/m2
20:42 53.4 °F /  11.9 °C 35.8 °F /  2.1 °C 30.31in /  1026.3hPa Calm   1.0mph /  1.6km/h 51% 0.00in /  0mm 0.0 W/m2
20:48 53.2 °F /  11.8 °C 35.1 °F /  1.7 °C 30.31in /  1026.3hPa Calm     50% 0.00in /  0mm 0.0 W/m2
20:54 53.2 °F /  11.8 °C 35.1 °F /  1.7 °C 30.31in /  1026.3hPa Calm     50% 0.00in /  0mm 0.0 W/m2
21:00 53.2 °F /  11.8 °C 35.6 °F /  2 °C 30.31in /  1026.3hPa SE 0.9mph /  1.4km/h 2.0mph /  3.2km/h 51% 0.00in /  0mm 0.0 W/m2
21:07 53.1 °F /  11.7 °C 35.4 °F /  1.9 °C 30.31in /  1026.3hPa Calm     51% 0.00in /  0mm 0.0 W/m2
21:13 53.1 °F /  11.7 °C 35.4 °F /  1.9 °C 30.31in /  1026.3hPa Calm     51% 0.00in /  0mm 0.0 W/m2
21:19 52.7 °F /  11.5 °C 34.5 °F /  1.4 °C 30.31in /  1026.3hPa Calm     50% 0.00in /  0mm 0.0 W/m2
21:25 52.2 °F /  11.2 °C 34.5 °F /  1.4 °C 30.31in /  1026.3hPa Calm     51% 0.00in /  0mm 0.0 W/m2
21:31 51.6 °F /  10.9 °C 34.5 °F /  1.4 °C 30.31in /  1026.3hPa Calm     52% 0.00in /  0mm 0.0 W/m2
21:37 51.3 °F /  10.7 °C 34.7 °F /  1.5 °C 30.32in /  1026.6hPa Calm     53% 0.00in /  0mm 0.0 W/m2
21:43 51.1 °F /  10.6 °C 35.4 °F /  1.9 °C 30.32in /  1026.6hPa Calm     55% 0.00in /  0mm 0.0 W/m2
21:49 50.7 °F /  10.4 °C 35.1 °F /  1.7 °C 30.32in /  1026.6hPa Calm     55% 0.00in /  0mm 0.0 W/m2
21:55 50.7 °F /  10.4 °C 34.2 °F /  1.2 °C 30.32in /  1026.6hPa Calm   3.0mph /  4.8km/h 53% 0.00in /  0mm 0.0 W/m2
22:02 51.4 °F /  10.8 °C 34.0 °F /  1.1 °C 30.31in /  1026.3hPa Calm   4.0mph /  6.4km/h 51% 0.00in /  0mm 0.0 W/m2
22:08 52.9 °F /  11.6 °C 33.8 °F /  1 °C 30.31in /  1026.3hPa Calm   2.0mph /  3.2km/h 48% 0.00in /  0mm 0.0 W/m2
22:14 53.8 °F /  12.1 °C 34.0 °F /  1.1 °C 30.31in /  1026.3hPa Calm   5.0mph /  8km/h 47% 0.00in /  0mm 0.0 W/m2
22:20 54.3 °F /  12.4 °C 34.0 °F /  1.1 °C 30.31in /  1026.3hPa East 0.9mph /  1.4km/h 1.0mph /  1.6km/h 46% 0.00in /  0mm 0.0 W/m2
22:26 54.5 °F /  12.5 °C 34.2 °F /  1.2 °C 30.31in /  1026.3hPa Calm   2.0mph /  3.2km/h 46% 0.00in /  0mm 0.0 W/m2
22:32 54.3 °F /  12.4 °C 34.0 °F /  1.1 °C 30.31in /  1026.3hPa Calm     46% 0.00in /  0mm 0.0 W/m2
22:38 54.1 °F /  12.3 °C 34.9 °F /  1.6 °C 30.31in /  1026.3hPa Calm     48% 0.00in /  0mm 0.0 W/m2
22:45 53.6 °F /  12 °C 34.9 °F /  1.6 °C 30.31in /  1026.3hPa Calm     49% 0.00in /  0mm 0.0 W/m2
22:51 53.2 °F /  11.8 °C 35.1 °F /  1.7 °C 30.31in /  1026.3hPa Calm     50% 0.00in /  0mm 0.0 W/m2
22:57 52.9 °F /  11.6 °C 34.7 °F /  1.5 °C 30.31in /  1026.3hPa Calm     50% 0.00in /  0mm 0.0 W/m2
23:03 52.3 °F /  11.3 °C 34.7 °F /  1.5 °C 30.31in /  1026.3hPa Calm     51% 0.00in /  0mm 0.0 W/m2
23:09 52.0 °F /  11.1 °C 34.9 °F /  1.6 °C 30.31in /  1026.3hPa Calm     52% 0.00in /  0mm 0.0 W/m2
23:15 51.6 °F /  10.9 °C 34.5 °F /  1.4 °C 30.31in /  1026.3hPa Calm     52% 0.00in /  0mm 0.0 W/m2
23:21 51.3 °F /  10.7 °C 34.7 °F /  1.5 °C 30.32in /  1026.6hPa Calm   1.0mph /  1.6km/h 53% 0.00in /  0mm 0.0 W/m2
23:27 50.9 °F /  10.5 °C 34.3 °F /  1.3 °C 30.32in /  1026.6hPa Calm     53% 0.00in /  0mm 0.0 W/m2
23:33 50.7 °F /  10.4 °C 34.7 °F /  1.5 °C 30.32in /  1026.6hPa Calm     54% 0.00in /  0mm 0.0 W/m2
23:39 50.4 °F /  10.2 °C 34.3 °F /  1.3 °C 30.32in /  1026.6hPa Calm   2.0mph /  3.2km/h 54% 0.00in /  0mm 0.0 W/m2
23:45 50.2 °F /  10.1 °C 34.2 °F /  1.2 °C 30.32in /  1026.6hPa Calm     54% 0.00in /  0mm 0.0 W/m2
23:51 50.2 °F /  10.1 °C 34.7 °F /  1.5 °C 30.32in /  1026.6hPa Calm   4.0mph /  6.4km/h 55% 0.00in /  0mm 0.0 W/m2
23:57 49.8 °F /  9.9 °C 34.3 °F /  1.3 °C 30.32in /  1026.6hPa Calm     55% 0.00in /  0mm 0.0 W/m2
Olympia, Windhoek, Namibia
Compliments of Weather Underground - 3 mb